Terminal Aerodrome Forecast
Issued by NWS

Home | Current Version | Previous Version | Text Only | Print | Product List | Glossary On
Versions: 1 2 3 4 5 6 7 8 9 10 11 12 13 14 15 16 17 18 19
000
FTUS41 KBOX 212341 AAA
TAFBAF
TAF AMD
KBAF 212341Z 2200/2224 00000KT P6SM FEW200
     FM220300 00000KT 5SM BR SCT130
     FM221000 00000KT 1 1/2SM BR OVC015
     FM221200 00000KT 1/2SM FG OVC015
     FM221400 VRB03KT 3SM BR OVC020
     FM221600 04004KT P6SM BKN030
     FM222000 05006KT 5SM BR VCSH OVC015=

USA.gov is the U.S. government's official web portal to all federal, state and local government web resources and services.